This is the latest recevied weather packets stored in our database for station/object KC4JES. If no packets are shown the sender has not sent any weather packets the latest 10 day(s).
| Time | Temp. | Humidity | Pressure | Rain* | Wind** | Luminosity | Snow |
|---|---|---|---|---|---|---|---|
| 1777668140 | 30° C | 57% | 1009.9 hPa | 0 mm | - | 279 W/m² | - |
| 1777667835 | 30° C | 57% | 1009.9 hPa | 0 mm | - | 496 W/m² | - |
| 1777667533 | 30° C | 56% | 1010.2 hPa | 0 mm | - | 472 W/m² | - |
| 1777667230 | 30° C | 56% | 1010.4 hPa | 0 mm | - | 501 W/m² | - |
| 1777666927 | 30° C | 60% | 1010.5 hPa | 0 mm | - | 640 W/m² | - |
| 1777666624 | 28.89° C | 63% | 1010.4 hPa | 0 mm | - | 652 W/m² | - |
| 1777666320 | 27.78° C | 66% | 1010.4 hPa | 0 mm | - | 659 W/m² | - |
| 1777666017 | 27.78° C | 68% | 1010.6 hPa | 0 mm | - | 215 W/m² | - |
| 1777665715 | 27.78° C | 66% | 1010.8 hPa | 0 mm | - | 220 W/m² | - |
| 1777665412 | 27.22° C | 68% | 1010.8 hPa | 0 mm | - | 195 W/m² | - |
| 1777665107 | 27.22° C | 65% | 1010.8 hPa | 0 mm | - | 118 W/m² | - |
| 1777664803 | 27.78° C | 65% | 1011 hPa | 0 mm | - | 141 W/m² | - |
| 1777664499 | 27.78° C | 65% | 1011.2 hPa | 0 mm | - | 120 W/m² | - |
| 1777664196 | 28.33° C | 64% | 1010.8 hPa | 0 mm | - | 114 W/m² | - |
| 1777663895 | 27.78° C | 64% | 1011 hPa | 0 mm | - | 197 W/m² | - |
| 1777663592 | 28.89° C | 63% | 1010.8 hPa | 0 mm | - | 173 W/m² | - |
| 1777663289 | 29.44° C | 62% | 1010.9 hPa | 0 mm | - | 158 W/m² | - |
| 1777662986 | 30.56° C | 59% | 1011.1 hPa | 0 mm | - | 235 W/m² | - |
| 1777662683 | 31.67° C | 50% | 1011.2 hPa | 0 mm | - | 220 W/m² | - |
| 1777662380 | 31.11° C | 49% | 1011.1 hPa | 0 mm | - | 891 W/m² | - |
| 1777662075 | 30.56° C | 49% | 1011.4 hPa | 0 mm | - | 873 W/m² | - |
| 1777661771 | 30.56° C | 53% | 1011.1 hPa | 0 mm | - | 907 W/m² | - |
| 1777661467 | 30.56° C | 51% | 1011.3 hPa | 0 mm | - | 706 W/m² | - |
| 1777661163 | 30.56° C | 51% | 1011.3 hPa | 0 mm | - | 849 W/m² | - |
| 1777660858 | 30.56° C | 58% | 1011.7 hPa | 0 mm | - | 988 W/m² | - |
* Rain latest hour (hover to see other rain measurements)
** Current wind speed in m/s (hover to see current wind gust speed)